Neapolis, Ohio
Current Conditions -  °F | °C
As of 1:52 PM on Thursday 23 Oct 2014 (Local Time) from KTOL Reporting Station
Few Clouds Few Clouds  
Wind Chill: 53°   Ceiling: Unl
Heat Index: 53°   Visibility: 10mi
Dew Point: 41°   Wind: 5mph
Humidity: 64%   Direction: 230°SW
Pressure: 30.21"   Gusts: NA
Location:  41.49°N, 83.87°W
Report Text: KTOL 231752Z 23004KT 10SM FEW021 12/05 A3021 RMK AO2 SLP233 T01170050 10117 20000 58018
Loading
Personal Weather Stations






























Interactive Weather Map
Tropical Storm Tracking
New forecast layout! Learn more

10-Day Weather Forecast

Advertisements
Track Severe Weather on mobile